createdAt,value
2018-03-19T00:01:10.296Z,9.38
2018-03-19T00:03:38.938Z,10.07
2018-03-19T00:06:06.618Z,10.50
2018-03-19T00:08:34.921Z,11.10
2018-03-19T00:11:02.791Z,11.70
2018-03-19T00:13:30.471Z,10.73
2018-03-19T00:15:58.105Z,10.83
2018-03-19T00:18:25.859Z,9.63
2018-03-19T00:20:53.968Z,9.60
2018-03-19T00:23:21.666Z,10.40
2018-03-19T00:25:49.266Z,10.43
2018-03-19T00:28:16.996Z,11.30
2018-03-19T00:30:44.768Z,9.93
2018-03-19T00:33:12.603Z,11.10
2018-03-19T00:35:40.276Z,9.75
2018-03-19T00:38:07.916Z,10.20
2018-03-19T00:40:35.827Z,9.30
2018-03-19T00:43:03.796Z,10.20
2018-03-19T00:45:31.689Z,10.67
2018-03-19T00:47:59.463Z,9.57
2018-03-19T00:50:28.883Z,10.50
2018-03-19T00:52:58.603Z,9.95
2018-03-19T00:55:33.779Z,9.93
2018-03-19T00:58:01.643Z,10.20
2018-03-19T01:00:29.315Z,12.10
2018-03-19T01:02:59.105Z,9.30
2018-03-19T01:05:27.926Z,10.48
2018-03-19T01:07:55.778Z,12.90
2018-03-19T01:10:23.469Z,10.77
2018-03-19T01:12:51.223Z,11.23
2018-03-19T01:15:18.901Z,8.63
2018-03-19T01:17:46.589Z,13.17
2018-03-19T01:20:15.244Z,11.23
2018-03-19T01:22:43.119Z,9.95
2018-03-19T01:25:10.797Z,8.93
2018-03-19T01:27:38.623Z,10.83
2018-03-19T01:30:06.285Z,11.97
2018-03-19T01:32:34.030Z,10.30
2018-03-19T01:35:01.816Z,9.47
2018-03-19T01:37:29.667Z,11.90
2018-03-19T01:39:58.799Z,10.32
2018-03-19T01:42:26.366Z,9.03
2018-03-19T01:44:54.106Z,12.70
2018-03-19T01:47:21.815Z,11.17
2018-03-19T01:49:49.564Z,9.17
2018-03-19T01:52:17.272Z,10.60
2018-03-19T01:54:44.832Z,8.27
2018-03-19T01:57:12.239Z,9.63
2018-03-19T01:59:39.616Z,11.07
2018-03-19T02:02:06.996Z,12.50
2018-03-19T02:04:34.553Z,9.48
2018-03-19T02:07:01.930Z,9.83
2018-03-19T02:09:29.316Z,11.47
2018-03-19T02:11:56.698Z,11.23
2018-03-19T02:14:24.132Z,10.60
2018-03-19T02:16:51.527Z,10.20
2018-03-19T02:19:18.931Z,10.77
2018-03-19T02:21:46.321Z,10.10
2018-03-19T02:24:13.773Z,11.97
2018-03-19T02:26:42.156Z,9.27
2018-03-19T02:29:09.584Z,8.77
2018-03-19T02:31:37.033Z,9.73
2018-03-19T02:34:04.478Z,10.67
2018-03-19T02:36:31.862Z,11.23
2018-03-19T02:38:59.266Z,8.60
2018-03-19T02:41:26.657Z,8.90
2018-03-19T02:43:54.228Z,10.10
2018-03-19T02:46:21.615Z,8.40
2018-03-19T02:48:49.064Z,9.90
2018-03-19T02:51:17.541Z,7.83
2018-03-19T02:53:45.265Z,11.38
2018-03-19T02:56:12.674Z,9.00
2018-03-19T02:58:40.063Z,11.18
2018-03-19T03:01:07.469Z,9.87
2018-03-19T03:03:34.972Z,10.13
2018-03-19T03:06:02.357Z,10.27
2018-03-19T03:08:29.754Z,10.53
2018-03-19T03:10:58.150Z,10.20
2018-03-19T03:13:25.521Z,13.40
2018-03-19T03:15:52.924Z,11.17
2018-03-19T03:18:20.324Z,7.82
2018-03-19T03:20:47.775Z,9.53
2018-03-19T03:23:15.705Z,10.93
2018-03-19T03:25:43.100Z,9.97
2018-03-19T03:28:10.492Z,14.70
2018-03-19T03:30:37.877Z,9.63
2018-03-19T03:33:05.327Z,12.45
2018-03-19T03:35:32.724Z,11.90
2018-03-19T03:38:00.109Z,11.10
2018-03-19T03:40:28.572Z,11.73
2018-03-19T03:42:55.974Z,11.70
2018-03-19T03:45:23.519Z,9.30
2018-03-19T03:47:50.954Z,10.40
2018-03-19T03:50:18.350Z,9.60
2018-03-19T03:52:45.749Z,9.05
2018-03-19T03:55:13.163Z,10.70
2018-03-19T03:57:40.658Z,11.70
2018-03-19T04:00:08.043Z,14.90
2018-03-19T04:02:35.593Z,8.97
2018-03-19T04:05:02.978Z,7.70
2018-03-19T04:07:32.332Z,11.43
2018-03-19T04:09:59.749Z,10.40
2018-03-19T04:12:27.132Z,9.43
2018-03-19T04:14:54.648Z,9.73
2018-03-19T04:17:22.032Z,9.60
2018-03-19T04:19:49.702Z,10.83
2018-03-19T04:22:17.097Z,8.67
2018-03-19T04:24:44.492Z,12.50
2018-03-19T04:27:11.877Z,9.53
2018-03-19T04:29:39.346Z,8.90
2018-03-19T04:32:06.743Z,12.32
2018-03-19T04:34:34.129Z,8.90
2018-03-19T04:37:01.577Z,12.53
2018-03-19T04:39:28.972Z,11.97
2018-03-19T04:41:56.351Z,12.20
2018-03-19T04:44:23.806Z,12.93
2018-03-19T04:46:51.197Z,12.90
2018-03-19T04:49:18.588Z,11.97
2018-03-19T04:51:45.993Z,10.57
2018-03-19T04:54:14.588Z,15.20
2018-03-19T04:56:41.995Z,10.40
2018-03-19T04:59:09.396Z,10.53
2018-03-19T05:01:36.872Z,11.00
2018-03-19T05:04:04.273Z,9.97
2018-03-19T05:06:31.663Z,10.90
2018-03-19T05:08:59.092Z,10.73
2018-03-19T05:11:26.474Z,10.27
2018-03-19T05:13:53.855Z,10.97
2018-03-19T05:16:21.245Z,10.27
2018-03-19T05:18:48.646Z,11.70
2018-03-19T05:21:16.060Z,11.27
2018-03-19T05:23:43.483Z,11.15
2018-03-19T05:26:10.858Z,12.83
2018-03-19T05:28:38.361Z,11.50
2018-03-19T05:31:10.654Z,15.37
2018-03-19T05:33:38.229Z,12.23
2018-03-19T05:36:05.600Z,10.67
2018-03-19T05:38:33.683Z,10.48
2018-03-19T05:41:01.064Z,12.68
2018-03-19T05:43:29.230Z,12.05
2018-03-19T05:45:56.658Z,13.63
2018-03-19T05:48:24.057Z,11.40
2018-03-19T05:50:51.560Z,13.50
2018-03-19T05:53:18.977Z,11.93
2018-03-19T05:55:46.336Z,12.00
2018-03-19T05:58:13.743Z,10.23
2018-03-19T06:00:41.132Z,11.83
2018-03-19T06:03:08.522Z,14.33
2018-03-19T06:05:35.912Z,13.60
2018-03-19T06:08:03.360Z,10.90
2018-03-19T06:10:30.811Z,11.57
2018-03-19T06:12:58.145Z,15.67
2018-03-19T06:15:25.588Z,10.67
2018-03-19T06:17:53.036Z,10.60
2018-03-19T06:20:20.431Z,11.50
2018-03-19T06:22:47.885Z,9.73
2018-03-19T06:25:15.311Z,13.20
2018-03-19T06:27:42.692Z,10.60
2018-03-19T06:30:10.088Z,12.60
2018-03-19T06:32:37.512Z,11.47
2018-03-19T06:35:04.904Z,12.20
2018-03-19T06:37:32.282Z,10.23
2018-03-19T06:39:59.667Z,14.43
2018-03-19T06:42:27.085Z,13.17
2018-03-19T06:44:54.488Z,10.05
2018-03-19T06:47:21.883Z,11.43
2018-03-19T06:49:49.303Z,10.73
2018-03-19T06:52:16.689Z,10.13
2018-03-19T06:54:44.066Z,12.27
2018-03-19T06:57:11.459Z,12.10
2018-03-19T06:59:38.845Z,9.00
2018-03-19T07:02:06.276Z,10.50
2018-03-19T07:04:33.649Z,13.45
2018-03-19T07:07:01.061Z,10.52
2018-03-19T07:09:28.719Z,9.57
2018-03-19T07:11:56.079Z,10.70
2018-03-19T07:14:23.540Z,10.83
2018-03-19T07:16:50.934Z,11.23
2018-03-19T07:19:18.354Z,12.23
2018-03-19T07:21:45.752Z,10.83
2018-03-19T07:24:13.249Z,13.40
2018-03-19T07:26:40.641Z,10.50
2018-03-19T07:29:08.028Z,10.53
2018-03-19T07:31:35.709Z,10.23
2018-03-19T07:34:03.115Z,9.60
2018-03-19T07:36:30.522Z,11.87
2018-03-19T07:38:57.917Z,14.57
2018-03-19T07:41:25.413Z,11.07
2018-03-19T07:43:52.940Z,9.93
2018-03-19T07:46:20.344Z,10.63
2018-03-19T07:48:47.732Z,10.82
2018-03-19T07:51:15.164Z,12.93
2018-03-19T07:53:42.697Z,10.73
2018-03-19T07:56:10.077Z,10.10
2018-03-19T07:58:37.597Z,11.80
2018-03-19T08:01:05.093Z,12.37
2018-03-19T08:03:32.479Z,10.03
2018-03-19T08:06:00.145Z,12.15
2018-03-19T08:08:27.601Z,9.87
2018-03-19T08:10:54.988Z,12.33
2018-03-19T08:13:22.362Z,12.40
2018-03-19T08:15:49.774Z,10.93
2018-03-19T08:18:17.140Z,10.33
2018-03-19T08:20:44.554Z,11.10
2018-03-19T08:23:11.961Z,12.70
2018-03-19T08:25:39.352Z,11.30
2018-03-19T08:28:06.720Z,10.60
2018-03-19T08:30:34.159Z,11.90
2018-03-19T08:33:01.496Z,11.53
2018-03-19T08:35:28.893Z,10.60
2018-03-19T08:37:56.290Z,11.30
2018-03-19T08:40:23.681Z,11.33
2018-03-19T08:42:51.056Z,10.20
2018-03-19T08:45:18.448Z,12.43
2018-03-19T08:47:45.821Z,14.17
2018-03-19T08:50:13.228Z,11.18
2018-03-19T08:52:40.608Z,10.20
2018-03-19T08:55:07.991Z,10.77
2018-03-19T08:57:35.424Z,10.33
2018-03-19T09:00:02.824Z,11.30
2018-03-19T09:02:30.346Z,10.35
2018-03-19T09:04:57.862Z,10.70
2018-03-19T09:07:25.285Z,9.82
2018-03-19T09:09:53.113Z,11.07
2018-03-19T09:12:20.508Z,13.37
2018-03-19T09:14:47.880Z,11.13
2018-03-19T09:17:15.282Z,12.00
2018-03-19T09:19:42.650Z,9.97
2018-03-19T09:22:10.038Z,11.70
2018-03-19T09:24:37.484Z,11.27
2018-03-19T09:27:04.961Z,14.30
2018-03-19T09:29:32.400Z,12.80
2018-03-19T09:32:00.689Z,11.82
2018-03-19T09:34:28.063Z,11.20
2018-03-19T09:36:55.658Z,12.02
2018-03-19T09:39:23.120Z,10.73
2018-03-19T09:41:50.504Z,11.05
2018-03-19T09:44:18.033Z,10.37
2018-03-19T09:46:45.421Z,11.80
2018-03-19T09:49:12.835Z,14.07
2018-03-19T09:51:40.398Z,11.93
2018-03-19T09:54:07.791Z,11.20
2018-03-19T09:56:35.175Z,12.90
2018-03-19T09:59:02.756Z,12.07
2018-03-19T10:01:30.773Z,11.80
2018-03-19T10:03:58.268Z,13.90
2018-03-19T10:06:25.682Z,12.75
2018-03-19T10:08:53.107Z,15.00
2018-03-19T10:11:20.491Z,12.83
2018-03-19T10:13:47.906Z,13.43
2018-03-19T10:16:15.385Z,12.80
2018-03-19T10:18:42.733Z,11.30
2018-03-19T10:21:10.139Z,15.80
2018-03-19T10:23:37.624Z,12.93
2018-03-19T10:26:05.036Z,13.18
2018-03-19T10:28:32.439Z,12.67
2018-03-19T10:31:00.869Z,12.43
2018-03-19T10:33:28.328Z,10.90
2018-03-19T10:35:55.689Z,11.80
2018-03-19T10:38:23.204Z,12.40
2018-03-19T10:40:50.616Z,11.13
2018-03-19T10:43:18.240Z,11.97
2018-03-19T10:45:45.825Z,11.43
2018-03-19T10:48:13.295Z,11.87
2018-03-19T10:50:40.701Z,11.47
2018-03-19T10:53:08.132Z,11.70
2018-03-19T10:55:35.542Z,11.18
2018-03-19T10:58:02.938Z,13.23
2018-03-19T11:00:31.144Z,15.23
2018-03-19T11:03:04.168Z,14.93
2018-03-19T11:05:31.581Z,10.83
2018-03-19T11:08:04.642Z,10.73
2018-03-19T11:10:32.041Z,10.48
2018-03-19T11:12:59.453Z,12.77
2018-03-19T11:15:26.853Z,12.87
2018-03-19T11:17:54.247Z,12.00
2018-03-19T11:20:21.644Z,14.10
2018-03-19T11:22:49.037Z,11.47
2018-03-19T11:25:16.416Z,15.07
2018-03-19T11:27:43.805Z,11.57
2018-03-19T11:30:11.209Z,12.40
2018-03-19T11:32:38.633Z,12.80
2018-03-19T11:35:06.017Z,14.20
2018-03-19T11:37:33.401Z,10.37
2018-03-19T11:40:01.300Z,11.12
2018-03-19T11:42:28.692Z,14.70
2018-03-19T11:45:04.026Z,12.67
2018-03-19T11:47:34.441Z,12.87
2018-03-19T11:50:01.962Z,10.87
2018-03-19T11:52:29.370Z,14.60
2018-03-19T11:54:56.746Z,12.40
2018-03-19T11:57:24.132Z,15.80
2018-03-19T11:59:51.519Z,10.10
2018-03-19T12:02:18.950Z,11.15
2018-03-19T12:04:46.342Z,10.97
2018-03-19T12:07:13.725Z,12.60
2018-03-19T12:09:41.163Z,11.73
2018-03-19T12:12:08.542Z,10.70
2018-03-19T12:14:35.965Z,11.00
2018-03-19T12:17:03.366Z,12.93
2018-03-19T12:19:31.484Z,11.73
2018-03-19T12:21:59.246Z,10.53
2018-03-19T12:24:26.621Z,12.10
2018-03-19T12:26:54.913Z,12.50
2018-03-19T12:29:22.302Z,12.13
2018-03-19T12:31:49.689Z,11.57
2018-03-19T12:34:17.074Z,11.87
2018-03-19T12:36:44.473Z,11.12
2018-03-19T12:39:11.865Z,10.53
2018-03-19T12:41:39.279Z,10.82
2018-03-19T12:44:06.666Z,12.60
2018-03-19T12:46:34.045Z,12.30
2018-03-19T12:49:01.695Z,10.10
2018-03-19T12:51:30.894Z,10.97
2018-03-19T12:53:58.277Z,12.30
2018-03-19T12:56:25.658Z,13.27
2018-03-19T12:58:53.045Z,10.87
2018-03-19T13:01:20.420Z,10.63
2018-03-19T13:03:47.831Z,13.43
2018-03-19T13:06:15.541Z,12.13
2018-03-19T13:08:42.949Z,12.40
2018-03-19T13:11:10.320Z,10.83
2018-03-19T13:13:37.707Z,11.68
2018-03-19T13:16:05.086Z,10.83
2018-03-19T13:18:32.581Z,12.47
2018-03-19T13:20:59.962Z,10.53
2018-03-19T13:23:27.399Z,9.83
2018-03-19T13:25:55.738Z,10.87
2018-03-19T13:28:23.170Z,10.90
2018-03-19T13:30:50.591Z,9.87
2018-03-19T13:33:17.952Z,11.60
2018-03-19T13:35:45.332Z,9.57
2018-03-19T13:38:12.726Z,9.97
2018-03-19T13:40:40.109Z,10.20
2018-03-19T13:43:07.490Z,9.33
2018-03-19T13:45:35.790Z,11.40
2018-03-19T13:48:03.174Z,12.57
2018-03-19T13:50:30.575Z,12.63
2018-03-19T13:52:57.952Z,11.43
2018-03-19T13:55:25.354Z,14.27
2018-03-19T13:57:52.725Z,11.13
2018-03-19T14:00:20.128Z,12.00
2018-03-19T14:02:47.585Z,13.48
2018-03-19T14:05:14.988Z,14.75
2018-03-19T14:07:42.385Z,14.73
2018-03-19T14:10:09.777Z,12.13
2018-03-19T14:12:37.148Z,12.70
2018-03-19T14:15:04.545Z,12.27
2018-03-19T14:17:32.216Z,13.07
2018-03-19T14:19:59.613Z,12.50
2018-03-19T14:22:27.064Z,12.93
2018-03-19T14:24:56.284Z,14.87
2018-03-19T14:27:23.664Z,14.07
2018-03-19T14:29:51.077Z,11.30
2018-03-19T14:32:18.453Z,12.07
2018-03-19T14:34:45.842Z,11.63
2018-03-19T14:37:13.237Z,12.40
2018-03-19T14:39:40.636Z,12.55
2018-03-19T14:42:08.039Z,13.07
2018-03-19T14:44:35.420Z,14.20
2018-03-19T14:47:02.825Z,16.33
2018-03-19T14:49:30.214Z,13.30
2018-03-19T14:52:01.873Z,22.30
2018-03-19T14:54:32.411Z,21.10
2018-03-19T14:57:00.638Z,14.47
2018-03-19T14:59:31.630Z,14.53
2018-03-19T15:02:05.068Z,13.00
2018-03-19T15:04:32.608Z,12.60
2018-03-19T15:07:00.826Z,12.47
2018-03-19T15:09:28.213Z,12.10
2018-03-19T15:11:55.628Z,13.77
2018-03-19T15:14:23.026Z,13.07
2018-03-19T15:16:50.419Z,13.60
2018-03-19T15:19:17.838Z,14.30
2018-03-19T15:21:45.241Z,13.77
2018-03-19T15:24:12.642Z,12.53
2018-03-19T15:26:40.064Z,16.10
2018-03-19T15:29:07.454Z,14.17
2018-03-19T15:31:34.849Z,12.30
2018-03-19T15:34:02.613Z,13.30
2018-03-19T15:36:30.004Z,13.07
2018-03-19T15:38:57.414Z,13.27
2018-03-19T15:41:24.845Z,12.73
2018-03-19T15:43:52.262Z,12.47
2018-03-19T15:46:19.633Z,12.90
2018-03-19T15:48:47.048Z,13.77
2018-03-19T15:51:14.451Z,13.70
2018-03-19T15:53:41.824Z,12.60
2018-03-19T15:56:09.218Z,11.93
2018-03-19T15:58:36.636Z,11.50
2018-03-19T16:01:04.040Z,12.87
2018-03-19T16:03:31.417Z,12.03
2018-03-19T16:05:58.818Z,13.40
2018-03-19T16:08:26.228Z,12.50
2018-03-19T16:10:53.649Z,13.23
2018-03-19T16:13:21.043Z,12.60
2018-03-19T16:15:48.437Z,14.68
2018-03-19T16:18:15.861Z,12.82
2018-03-19T16:20:43.251Z,12.65
2018-03-19T16:23:10.640Z,11.75
2018-03-19T16:25:38.014Z,11.90
2018-03-19T16:28:05.447Z,12.07
2018-03-19T16:30:32.825Z,12.67
2018-03-19T16:33:00.220Z,13.70
2018-03-19T16:35:27.628Z,13.07
2018-03-19T16:37:55.018Z,11.00
2018-03-19T16:40:22.412Z,12.37
2018-03-19T16:42:49.846Z,11.30
2018-03-19T16:45:17.392Z,11.20
2018-03-19T16:47:44.952Z,10.70
2018-03-19T16:50:13.695Z,11.30
2018-03-19T16:52:42.253Z,13.20
2018-03-19T16:55:09.633Z,10.57
2018-03-19T16:57:37.035Z,12.60
2018-03-19T17:00:04.436Z,12.40
2018-03-19T17:02:32.783Z,11.56
2018-03-19T17:05:00.177Z,12.90
2018-03-19T17:07:27.561Z,10.75
2018-03-19T17:09:54.954Z,11.33
2018-03-19T17:12:22.436Z,10.87
2018-03-19T17:14:49.854Z,11.90
2018-03-19T17:17:17.250Z,10.18
2018-03-19T17:19:44.641Z,10.43
2018-03-19T17:22:12.044Z,11.12
2018-03-19T17:24:39.507Z,10.73
2018-03-19T17:27:07.208Z,12.80
2018-03-19T17:29:34.698Z,11.27
2018-03-19T17:32:03.000Z,11.77
2018-03-19T17:34:30.510Z,12.83
2018-03-19T17:36:57.907Z,12.97
2018-03-19T17:39:25.277Z,12.00
2018-03-19T17:41:52.685Z,10.67
2018-03-19T17:44:20.090Z,10.73
2018-03-19T17:46:47.492Z,10.27
2018-03-19T17:49:14.894Z,12.00
2018-03-19T17:51:42.388Z,12.57
2018-03-19T17:54:09.877Z,10.93
2018-03-19T17:56:37.249Z,13.77
2018-03-19T17:59:04.641Z,11.33
2018-03-19T18:01:33.155Z,11.20
2018-03-19T18:04:00.546Z,11.90
2018-03-19T18:06:28.040Z,10.47
2018-03-19T18:08:55.458Z,14.17
2018-03-19T18:11:22.840Z,11.87
2018-03-19T18:13:50.242Z,13.80
2018-03-19T18:16:17.671Z,13.50
2018-03-19T18:18:45.097Z,14.25
2018-03-19T18:21:12.492Z,12.30
2018-03-19T18:23:39.920Z,11.77
2018-03-19T18:26:07.518Z,13.07
2018-03-19T18:28:34.906Z,11.33
2018-03-19T18:31:03.119Z,10.90
2018-03-19T18:33:30.829Z,13.03
2018-03-19T18:35:58.200Z,13.40
2018-03-19T18:38:25.793Z,13.17
2018-03-19T18:40:53.212Z,11.50
2018-03-19T18:43:20.672Z,12.27
2018-03-19T18:45:48.127Z,15.73
2018-03-19T18:48:15.597Z,13.02
2018-03-19T18:50:43.095Z,12.95
2018-03-19T18:53:10.485Z,12.18
2018-03-19T18:55:38.978Z,13.75
2018-03-19T18:58:06.481Z,14.30
2018-03-19T19:00:34.196Z,15.07
2018-03-19T19:03:01.574Z,13.20
2018-03-19T19:05:29.149Z,15.67
2018-03-19T19:07:56.528Z,13.97
2018-03-19T19:10:33.474Z,12.90
2018-03-19T19:13:05.386Z,14.10
2018-03-19T19:15:33.374Z,13.73
2018-03-19T19:18:00.806Z,16.80
2018-03-19T19:20:28.283Z,14.93
2018-03-19T19:22:55.873Z,17.53
2018-03-19T19:25:23.327Z,21.57
2018-03-19T19:27:50.705Z,15.80
2018-03-19T19:30:18.174Z,14.90
2018-03-19T19:32:45.562Z,13.40
2018-03-19T19:35:12.970Z,14.13
2018-03-19T19:37:40.349Z,14.85
2018-03-19T19:40:07.766Z,15.27
2018-03-19T19:42:35.140Z,16.27
2018-03-19T19:45:03.450Z,16.60
2018-03-19T19:47:30.918Z,13.93
2018-03-19T19:49:58.297Z,14.90
2018-03-19T19:52:25.767Z,14.10
2018-03-19T19:54:53.092Z,15.00
2018-03-19T19:57:22.571Z,15.90
2018-03-19T19:59:49.984Z,15.00
2018-03-19T20:02:17.371Z,13.70
2018-03-19T20:04:44.749Z,14.55
2018-03-19T20:07:12.164Z,15.27
2018-03-19T20:09:43.992Z,15.00
2018-03-19T20:12:11.410Z,14.93
2018-03-19T20:14:38.868Z,16.30
2018-03-19T20:17:06.265Z,15.10
2018-03-19T20:19:33.677Z,13.70
2018-03-19T20:22:01.186Z,15.60
2018-03-19T20:24:28.580Z,14.77
2018-03-19T20:26:55.985Z,15.70
2018-03-19T20:29:23.595Z,15.70
2018-03-19T20:31:50.901Z,14.10
2018-03-19T20:34:18.416Z,16.43
2018-03-19T20:36:45.795Z,15.93
2018-03-19T20:39:13.196Z,14.57
2018-03-19T20:41:40.591Z,14.20
2018-03-19T20:44:07.980Z,16.17
2018-03-19T20:46:35.393Z,15.20
2018-03-19T20:49:02.816Z,15.40
2018-03-19T20:51:30.228Z,15.77
2018-03-19T20:53:58.487Z,15.67
2018-03-19T20:56:25.892Z,15.17
2018-03-19T20:58:53.292Z,15.57
2018-03-19T21:01:21.657Z,14.90
2018-03-19T21:03:49.105Z,15.15
2018-03-19T21:06:16.485Z,17.97
2018-03-19T21:08:43.925Z,14.67
2018-03-19T21:11:11.310Z,15.37
2018-03-19T21:13:38.696Z,16.67
2018-03-19T21:16:06.140Z,15.57
2018-03-19T21:18:33.821Z,15.80
2018-03-19T21:21:01.461Z,18.43
2018-03-19T21:23:28.836Z,18.63
2018-03-19T21:25:56.249Z,16.20
2018-03-19T21:28:23.641Z,16.67
2018-03-19T21:30:51.150Z,16.45
2018-03-19T21:33:18.644Z,15.53
2018-03-19T21:35:46.048Z,15.85
2018-03-19T21:38:13.706Z,15.73
2018-03-19T21:40:41.192Z,29.67
2018-03-19T21:43:08.593Z,15.40
2018-03-19T21:45:35.988Z,15.50
2018-03-19T21:48:04.211Z,15.57
2018-03-19T21:50:31.627Z,16.60
2018-03-19T21:52:59.069Z,15.17
2018-03-19T21:55:26.577Z,15.50
2018-03-19T21:57:53.993Z,15.47
2018-03-19T22:00:21.438Z,15.52
2018-03-19T22:02:49.003Z,15.18
2018-03-19T22:05:16.385Z,15.77
2018-03-19T22:07:43.796Z,16.00
2018-03-19T22:10:11.265Z,16.13
2018-03-19T22:12:38.661Z,15.53
2018-03-19T22:15:06.059Z,18.13
2018-03-19T22:17:34.152Z,15.82
2018-03-19T22:20:01.546Z,15.60
2018-03-19T22:22:28.937Z,15.82
2018-03-19T22:24:56.440Z,15.80
2018-03-19T22:27:23.880Z,16.70
2018-03-19T22:29:51.256Z,15.90
2018-03-19T22:32:18.656Z,18.13
2018-03-19T22:34:46.089Z,20.60
2018-03-19T22:37:13.786Z,16.42
2018-03-19T22:39:41.210Z,15.33
2018-03-19T22:42:08.594Z,15.43
2018-03-19T22:44:36.513Z,17.10
2018-03-19T22:47:04.268Z,16.77
2018-03-19T22:49:31.657Z,16.50
2018-03-19T22:51:59.161Z,16.00
2018-03-19T22:54:26.561Z,16.20
2018-03-19T22:56:54.003Z,16.50
2018-03-19T22:59:23.303Z,17.60
2018-03-19T23:01:50.929Z,15.70
2018-03-19T23:04:30.398Z,17.62
2018-03-19T23:06:58.020Z,16.60
2018-03-19T23:09:27.008Z,15.57
2018-03-19T23:11:54.709Z,15.07
2018-03-19T23:14:22.339Z,16.00
2018-03-19T23:16:50.206Z,16.17
2018-03-19T23:19:18.143Z,16.40
2018-03-19T23:21:45.947Z,16.70
2018-03-19T23:24:13.624Z,19.23
2018-03-19T23:26:41.237Z,20.70
2018-03-19T23:29:08.856Z,18.60
2018-03-19T23:31:36.579Z,19.50
2018-03-19T23:34:07.968Z,15.95
2018-03-19T23:36:36.043Z,16.27
2018-03-19T23:39:04.778Z,16.07
2018-03-19T23:41:32.465Z,15.13
2018-03-19T23:44:01.185Z,15.00
2018-03-19T23:46:30.722Z,18.33
2018-03-19T23:48:58.380Z,16.70
2018-03-19T23:51:26.135Z,17.87
2018-03-19T23:53:53.854Z,15.37
2018-03-19T23:56:21.478Z,14.73
2018-03-19T23:58:49.163Z,16.00
